createdAt,value
2022-11-12T00:00:54.152Z,1018.95
2022-11-12T00:01:54.116Z,1018.96
2022-11-12T00:02:54.058Z,1018.96
2022-11-12T00:03:54.023Z,1018.96
2022-11-12T00:04:53.997Z,1018.95
2022-11-12T00:05:53.989Z,1018.95
2022-11-12T00:06:54.025Z,1018.94
2022-11-12T00:07:53.976Z,1018.93
2022-11-12T00:09:01.499Z,1018.93
2022-11-12T00:10:01.487Z,1018.91
2022-11-12T00:10:53.957Z,1018.92
2022-11-12T00:11:53.958Z,1018.93
2022-11-12T00:12:53.927Z,1018.94
2022-11-12T00:13:53.905Z,1018.97
2022-11-12T00:14:53.919Z,1019.00
2022-11-12T00:15:53.882Z,1019.03
2022-11-12T00:16:53.875Z,1019.04
2022-11-12T00:17:53.896Z,1019.04
2022-11-12T00:18:53.891Z,1019.03
2022-11-12T00:19:53.846Z,1019.04
2022-11-12T00:20:53.844Z,1019.04
2022-11-12T00:21:53.842Z,1019.05
2022-11-12T00:22:53.871Z,1019.05
2022-11-12T00:23:53.860Z,1019.05
2022-11-12T00:24:53.812Z,1019.06
2022-11-12T00:25:53.778Z,1019.06
2022-11-12T00:26:53.768Z,1019.07
2022-11-12T00:27:53.797Z,1019.09
2022-11-12T00:28:53.754Z,1019.11
2022-11-12T00:29:53.742Z,1019.13
2022-11-12T00:30:53.754Z,1019.15
2022-11-12T00:31:53.724Z,1019.17
2022-11-12T00:32:53.751Z,1019.17
2022-11-12T00:33:53.709Z,1019.19
2022-11-12T00:34:53.688Z,1019.19
2022-11-12T00:35:53.679Z,1019.20
2022-11-12T00:36:53.682Z,1019.21
2022-11-12T00:37:53.713Z,1019.23
2022-11-12T00:38:53.667Z,1019.24
2022-11-12T00:39:53.639Z,1019.25
2022-11-12T00:40:53.627Z,1019.25
2022-11-12T00:41:53.628Z,1019.25
2022-11-12T00:42:53.644Z,1019.25
2022-11-12T00:43:53.608Z,1019.26
2022-11-12T00:44:53.634Z,1019.27
2022-11-12T00:45:53.595Z,1019.29
2022-11-12T00:46:53.602Z,1019.29
2022-11-12T00:47:53.580Z,1019.29
2022-11-12T00:48:53.594Z,1019.28
2022-11-12T00:49:53.544Z,1019.27
2022-11-12T00:50:53.558Z,1019.25
2022-11-12T00:51:53.724Z,1019.24
2022-11-12T00:52:53.543Z,1019.24
2022-11-12T00:53:53.515Z,1019.24
2022-11-12T00:55:01.010Z,1019.23
2022-11-12T00:56:00.023Z,1019.22
2022-11-12T00:56:59.994Z,1019.21
2022-11-12T00:57:53.479Z,1019.20
2022-11-12T00:58:53.462Z,1019.19
2022-11-12T00:59:53.454Z,1019.19
2022-11-12T01:00:53.466Z,1019.18
2022-11-12T01:01:53.426Z,1019.18
2022-11-12T01:02:53.501Z,1019.19
2022-11-12T01:03:53.464Z,1019.20
2022-11-12T01:04:53.413Z,1019.20
2022-11-12T01:05:53.403Z,1019.20
2022-11-12T01:06:53.437Z,1019.21
2022-11-12T01:07:56.232Z,1019.23
2022-11-12T01:08:53.357Z,1019.24
2022-11-12T01:09:53.360Z,1019.25
2022-11-12T01:10:53.331Z,1019.27
2022-11-12T01:11:53.322Z,1019.29
2022-11-12T01:12:53.333Z,1019.30
2022-11-12T01:13:53.301Z,1019.30
2022-11-12T01:14:53.307Z,1019.30
2022-11-12T01:15:53.275Z,1019.30
2022-11-12T01:16:53.285Z,1019.30
2022-11-12T01:17:53.290Z,1019.30
2022-11-12T01:18:53.252Z,1019.31
2022-11-12T01:19:53.248Z,1019.31
2022-11-12T01:20:53.230Z,1019.32
2022-11-12T01:21:53.238Z,1019.32
2022-11-12T01:22:53.232Z,1019.32
2022-11-12T01:23:53.214Z,1019.31
2022-11-12T01:24:53.222Z,1019.30
2022-11-12T01:25:53.183Z,1019.29
2022-11-12T01:26:53.171Z,1019.28
2022-11-12T01:27:53.201Z,1019.27
2022-11-12T01:28:53.176Z,1019.27
2022-11-12T01:29:53.140Z,1019.27
2022-11-12T01:30:53.148Z,1019.27
2022-11-12T01:31:53.120Z,1019.27
2022-11-12T01:32:53.148Z,1019.26
2022-11-12T01:33:53.104Z,1019.26
2022-11-12T01:34:53.092Z,1019.25
2022-11-12T01:35:53.070Z,1019.23
2022-11-12T01:36:53.082Z,1019.21
2022-11-12T01:37:53.887Z,1019.19
2022-11-12T01:38:53.063Z,1019.18
2022-11-12T01:39:53.042Z,1019.17
2022-11-12T01:40:53.024Z,1019.16
2022-11-12T01:41:53.007Z,1019.17
2022-11-12T01:42:54.909Z,1019.16
2022-11-12T01:43:53.023Z,1019.16
2022-11-12T01:44:52.990Z,1019.15
2022-11-12T01:45:52.983Z,1019.14
2022-11-12T01:46:52.964Z,1019.14
2022-11-12T01:47:53.026Z,1019.12
2022-11-12T01:48:52.945Z,1019.11
2022-11-12T01:49:56.850Z,1019.11
2022-11-12T01:50:52.923Z,1019.12
2022-11-12T01:51:52.913Z,1019.13
2022-11-12T01:52:53.179Z,1019.14
2022-11-12T01:53:52.883Z,1019.14
2022-11-12T01:54:52.883Z,1019.14
2022-11-12T01:55:52.916Z,1019.14
2022-11-12T01:56:52.872Z,1019.14
2022-11-12T01:57:52.878Z,1019.15
2022-11-12T01:58:52.848Z,1019.14
2022-11-12T01:59:52.830Z,1019.12
2022-11-12T02:00:52.897Z,1019.10
2022-11-12T02:01:52.818Z,1019.10
2022-11-12T02:02:52.879Z,1019.09
2022-11-12T02:03:52.789Z,1019.10
2022-11-12T02:04:52.812Z,1019.10
2022-11-12T02:05:52.791Z,1019.10
2022-11-12T02:06:52.802Z,1019.09
2022-11-12T02:07:52.765Z,1019.09
2022-11-12T02:08:52.735Z,1019.09
2022-11-12T02:09:52.735Z,1019.09
2022-11-12T02:10:52.718Z,1019.10
2022-11-12T02:11:52.708Z,1019.09
2022-11-12T02:17:37.859Z,1019.04
2022-11-12T02:18:38.868Z,1019.02
2022-11-12T02:19:38.808Z,1019.00
2022-11-12T02:20:38.802Z,1018.97
2022-11-12T02:21:38.848Z,1018.94
2022-11-12T02:22:38.818Z,1018.92
2022-11-12T02:23:38.773Z,1018.90
2022-11-12T02:24:38.770Z,1018.90
2022-11-12T02:25:38.788Z,1018.91
2022-11-12T02:26:38.842Z,1018.93
2022-11-12T02:27:38.770Z,1018.94
2022-11-12T02:28:38.740Z,1018.96
2022-11-12T02:29:38.709Z,1018.98
2022-11-12T02:30:38.760Z,1018.97
2022-11-12T02:31:38.687Z,1018.98
2022-11-12T02:32:38.729Z,1018.97
2022-11-12T02:33:38.682Z,1018.96
2022-11-12T02:34:38.665Z,1018.96
2022-11-12T02:35:38.664Z,1018.96
2022-11-12T02:36:38.685Z,1018.95
2022-11-12T02:37:38.643Z,1018.94
2022-11-12T02:38:38.616Z,1018.95
2022-11-12T02:39:38.644Z,1018.95
2022-11-12T02:40:38.615Z,1018.96
2022-11-12T02:41:38.617Z,1018.95
2022-11-12T02:42:38.615Z,1018.95
2022-11-12T02:43:38.588Z,1018.95
2022-11-12T02:44:38.558Z,1018.95
2022-11-12T02:45:38.541Z,1018.96
2022-11-12T02:46:38.549Z,1018.97
2022-11-12T02:47:38.533Z,1018.97
2022-11-12T02:48:38.531Z,1018.96
2022-11-12T02:49:38.517Z,1018.95
2022-11-12T02:50:38.491Z,1018.94
2022-11-12T02:51:38.483Z,1018.93
2022-11-12T02:52:38.530Z,1018.94
2022-11-12T02:53:38.478Z,1018.95
2022-11-12T02:54:38.450Z,1018.95
2022-11-12T02:55:38.455Z,1018.94
2022-11-12T02:56:39.127Z,1018.92
2022-11-12T02:57:38.477Z,1018.90
2022-11-12T02:58:38.398Z,1018.88
2022-11-12T02:59:38.410Z,1018.86
2022-11-12T03:00:38.465Z,1018.85
2022-11-12T03:01:39.768Z,1018.85
2022-11-12T03:02:38.427Z,1018.86
2022-11-12T03:03:38.387Z,1018.86
2022-11-12T03:04:38.339Z,1018.86
2022-11-12T03:05:38.356Z,1018.86
2022-11-12T03:06:41.923Z,1018.85
2022-11-12T03:07:38.345Z,1018.85
2022-11-12T03:08:38.307Z,1018.85
2022-11-12T03:09:38.303Z,1018.85
2022-11-12T03:10:38.301Z,1018.85
2022-11-12T03:11:38.281Z,1018.86
2022-11-12T03:12:38.285Z,1018.86
2022-11-12T03:13:38.238Z,1018.86
2022-11-12T03:14:38.255Z,1018.86
2022-11-12T03:15:38.215Z,1018.85
2022-11-12T03:16:38.231Z,1018.85
2022-11-12T03:17:38.239Z,1018.84
2022-11-12T03:18:38.214Z,1018.84
2022-11-12T03:19:38.196Z,1018.84
2022-11-12T03:20:38.201Z,1018.84
2022-11-12T03:21:38.168Z,1018.84
2022-11-12T03:22:46.642Z,1018.83
2022-11-12T03:23:44.671Z,1018.82
2022-11-12T03:24:45.149Z,1018.81
2022-11-12T03:25:44.687Z,1018.81
2022-11-12T03:26:38.106Z,1018.82
2022-11-12T03:27:38.123Z,1018.82
2022-11-12T03:28:38.080Z,1018.83
2022-11-12T03:29:38.116Z,1018.82
2022-11-12T03:30:38.071Z,1018.82
2022-11-12T03:31:38.054Z,1018.82
2022-11-12T03:32:38.097Z,1018.82
2022-11-12T03:33:38.041Z,1018.83
2022-11-12T03:34:38.028Z,1018.82
2022-11-12T03:35:38.005Z,1018.82
2022-11-12T03:36:38.000Z,1018.80
2022-11-12T03:37:38.014Z,1018.79
2022-11-12T03:38:37.978Z,1018.78
2022-11-12T03:39:37.995Z,1018.77
2022-11-12T03:40:37.965Z,1018.75
2022-11-12T03:41:37.955Z,1018.74
2022-11-12T03:42:38.009Z,1018.74
2022-11-12T03:43:37.954Z,1018.73
2022-11-12T03:44:37.933Z,1018.74
2022-11-12T03:45:37.925Z,1018.73
2022-11-12T03:46:43.033Z,1018.73
2022-11-12T03:47:37.939Z,1018.74
2022-11-12T03:48:37.900Z,1018.73
2022-11-12T03:49:37.867Z,1018.73
2022-11-12T03:50:37.857Z,1018.72
2022-11-12T03:51:37.862Z,1018.72
2022-11-12T03:52:37.878Z,1018.72
2022-11-12T03:53:38.556Z,1018.73
2022-11-12T03:54:37.814Z,1018.73
2022-11-12T03:55:37.835Z,1018.73
2022-11-12T03:56:37.799Z,1018.74
2022-11-12T03:57:37.804Z,1018.76
2022-11-12T03:58:37.814Z,1018.78
2022-11-12T03:59:37.773Z,1018.79
2022-11-12T04:00:37.743Z,1018.81
2022-11-12T04:01:37.772Z,1018.83
2022-11-12T04:02:37.759Z,1018.84
2022-11-12T04:03:37.720Z,1018.86
2022-11-12T04:04:44.225Z,1018.85
2022-11-12T04:05:44.207Z,1018.84
2022-11-12T04:06:37.711Z,1018.83
2022-11-12T04:07:39.265Z,1018.81
2022-11-12T04:08:37.701Z,1018.81
2022-11-12T04:09:37.650Z,1018.81
2022-11-12T04:10:37.717Z,1018.81
2022-11-12T04:11:37.652Z,1018.82
2022-11-12T04:12:37.650Z,1018.83
2022-11-12T04:13:37.626Z,1018.83
2022-11-12T04:14:37.606Z,1018.83
2022-11-12T04:15:37.595Z,1018.83
2022-11-12T04:16:37.601Z,1018.82
2022-11-12T04:17:37.615Z,1018.81
2022-11-12T04:18:37.559Z,1018.80
2022-11-12T04:19:37.547Z,1018.79
2022-11-12T04:20:37.542Z,1018.79
2022-11-12T04:21:37.620Z,1018.80
2022-11-12T04:22:37.535Z,1018.79
2022-11-12T04:23:37.496Z,1018.78
2022-11-12T04:24:37.493Z,1018.77
2022-11-12T04:25:37.479Z,1018.75
2022-11-12T04:26:37.491Z,1018.73
2022-11-12T04:27:37.494Z,1018.71
2022-11-12T04:28:37.448Z,1018.70
2022-11-12T04:29:37.738Z,1018.70
2022-11-12T04:30:37.437Z,1018.69
2022-11-12T04:31:37.413Z,1018.67
2022-11-12T04:32:37.430Z,1018.65
2022-11-12T04:33:37.410Z,1018.62
2022-11-12T04:34:37.427Z,1018.60
2022-11-12T04:35:37.397Z,1018.59
2022-11-12T04:36:37.360Z,1018.58
2022-11-12T04:37:37.424Z,1018.58
2022-11-12T04:38:37.353Z,1018.58
2022-11-12T04:39:37.339Z,1018.59
2022-11-12T04:40:37.327Z,1018.60
2022-11-12T04:41:37.343Z,1018.60
2022-11-12T04:42:37.318Z,1018.60
2022-11-12T04:43:37.289Z,1018.59
2022-11-12T04:44:37.276Z,1018.59
2022-11-12T04:45:37.269Z,1018.57
2022-11-12T04:46:37.273Z,1018.57
2022-11-12T04:47:37.260Z,1018.57
2022-11-12T04:48:37.248Z,1018.56
2022-11-12T04:49:37.227Z,1018.56
2022-11-12T04:50:37.219Z,1018.55
2022-11-12T04:51:37.239Z,1018.55
2022-11-12T04:52:37.226Z,1018.54
2022-11-12T04:53:37.194Z,1018.54
2022-11-12T04:54:37.502Z,1018.55
2022-11-12T04:55:37.186Z,1018.56
2022-11-12T05:00:04.317Z,1018.56
2022-11-12T05:01:05.344Z,1018.55
2022-11-12T05:02:05.278Z,1018.54
2022-11-12T05:03:05.298Z,1018.53
2022-11-12T05:04:05.250Z,1018.52
2022-11-12T05:05:05.258Z,1018.51
2022-11-12T05:06:05.259Z,1018.49
2022-11-12T05:07:05.329Z,1018.47
2022-11-12T05:08:05.258Z,1018.46
2022-11-12T05:09:05.212Z,1018.46
2022-11-12T05:10:05.219Z,1018.48
2022-11-12T05:11:08.766Z,1018.50
2022-11-12T05:12:05.201Z,1018.52
2022-11-12T05:13:05.214Z,1018.53
2022-11-12T05:14:05.158Z,1018.52
2022-11-12T05:15:05.178Z,1018.50
2022-11-12T05:16:05.178Z,1018.48
2022-11-12T05:17:05.092Z,1018.45
2022-11-12T05:18:05.146Z,1018.44
2022-11-12T05:19:05.111Z,1018.44
2022-11-12T05:20:06.733Z,1018.43
2022-11-12T05:21:05.093Z,1018.43
2022-11-12T05:22:05.069Z,1018.41
2022-11-12T05:23:07.113Z,1018.40
2022-11-12T05:24:05.066Z,1018.39
2022-11-12T05:25:06.157Z,1018.38
2022-11-12T05:26:05.042Z,1018.38
2022-11-12T05:27:05.032Z,1018.38
2022-11-12T05:28:07.058Z,1018.37
2022-11-12T05:29:08.552Z,1018.34
2022-11-12T05:30:04.999Z,1018.31
2022-11-12T05:31:04.998Z,1018.29
2022-11-12T05:32:04.978Z,1018.28
2022-11-12T05:33:04.977Z,1018.29
2022-11-12T05:34:04.944Z,1018.29
2022-11-12T05:35:04.987Z,1018.30
2022-11-12T05:36:04.978Z,1018.31
2022-11-12T05:37:04.935Z,1018.31
2022-11-12T05:38:04.927Z,1018.30
2022-11-12T05:39:04.934Z,1018.29
2022-11-12T05:40:04.884Z,1018.28
2022-11-12T05:41:04.880Z,1018.27
2022-11-12T05:42:13.915Z,1018.27
2022-11-12T05:43:04.884Z,1018.27
2022-11-12T05:44:04.853Z,1018.26
2022-11-12T05:45:04.875Z,1018.26
2022-11-12T05:46:04.827Z,1018.25
2022-11-12T05:47:04.827Z,1018.25
2022-11-12T05:48:04.850Z,1018.24
2022-11-12T05:49:11.316Z,1018.24
2022-11-12T05:50:11.280Z,1018.24
2022-11-12T05:51:13.553Z,1018.23
2022-11-12T05:52:04.758Z,1018.23
2022-11-12T05:53:04.781Z,1018.23
2022-11-12T05:54:04.740Z,1018.23
2022-11-12T05:55:04.729Z,1018.24
2022-11-12T05:56:04.743Z,1018.24
2022-11-12T05:57:04.722Z,1018.23
2022-11-12T05:58:04.721Z,1018.22
2022-11-12T05:59:04.715Z,1018.21
2022-11-12T06:00:04.682Z,1018.21
2022-11-12T06:01:04.673Z,1018.20
2022-11-12T06:02:04.758Z,1018.20
2022-11-12T06:03:04.694Z,1018.20
2022-11-12T06:04:04.644Z,1018.20
2022-11-12T06:05:04.650Z,1018.21
2022-11-12T06:06:04.611Z,1018.22
2022-11-12T06:07:04.718Z,1018.24
2022-11-12T06:08:04.617Z,1018.27
2022-11-12T06:09:04.604Z,1018.29
2022-11-12T06:10:04.598Z,1018.31
2022-11-12T06:11:04.592Z,1018.32
2022-11-12T06:12:04.559Z,1018.32
2022-11-12T06:13:04.639Z,1018.32
2022-11-12T06:14:04.482Z,1018.32
2022-11-12T06:15:04.480Z,1018.32
2022-11-12T06:16:05.124Z,1018.31
2022-11-12T06:17:04.459Z,1018.30
2022-11-12T06:18:04.468Z,1018.30
2022-11-12T06:19:04.447Z,1018.30
2022-11-12T06:20:04.420Z,1018.30
2022-11-12T06:21:04.423Z,1018.30
2022-11-12T06:22:04.404Z,1018.29
2022-11-12T06:23:04.423Z,1018.29
2022-11-12T06:24:04.391Z,1018.29
2022-11-12T06:25:04.385Z,1018.29
2022-11-12T06:26:04.369Z,1018.31
2022-11-12T06:27:04.356Z,1018.32
2022-11-12T06:28:04.393Z,1018.34
2022-11-12T06:29:04.371Z,1018.36
2022-11-12T06:30:04.327Z,1018.37
2022-11-12T06:31:04.321Z,1018.37
2022-11-12T06:32:04.302Z,1018.37
2022-11-12T06:33:04.323Z,1018.38
2022-11-12T06:34:04.280Z,1018.38
2022-11-12T06:35:04.283Z,1018.39
2022-11-12T06:36:04.260Z,1018.39
2022-11-12T06:37:04.252Z,1018.39
2022-11-12T06:38:04.266Z,1018.40
2022-11-12T06:39:04.242Z,1018.40
2022-11-12T06:40:04.216Z,1018.41
2022-11-12T06:41:04.208Z,1018.43
2022-11-12T06:42:04.204Z,1018.44
2022-11-12T06:43:04.279Z,1018.46
2022-11-12T06:44:04.198Z,1018.48
2022-11-12T06:45:04.168Z,1018.49
2022-11-12T06:46:04.166Z,1018.50
2022-11-12T06:47:04.152Z,1018.51
2022-11-12T06:48:04.188Z,1018.52
2022-11-12T06:49:04.148Z,1018.53
2022-11-12T06:50:04.139Z,1018.54
2022-11-12T06:51:04.170Z,1018.55
2022-11-12T06:52:04.097Z,1018.56
2022-11-12T06:53:04.126Z,1018.57
2022-11-12T06:54:04.079Z,1018.58
2022-11-12T06:55:04.073Z,1018.58
2022-11-12T06:56:04.070Z,1018.59
2022-11-12T06:57:04.108Z,1018.60
2022-11-12T06:58:04.066Z,1018.61
2022-11-12T06:59:04.075Z,1018.61
2022-11-12T07:00:04.042Z,1018.61
2022-11-12T07:01:09.982Z,1018.62
2022-11-12T07:02:04.108Z,1018.63
2022-11-12T07:03:04.017Z,1018.65
2022-11-12T07:04:03.981Z,1018.66
2022-11-12T07:05:03.961Z,1018.67
2022-11-12T07:06:03.948Z,1018.67
2022-11-12T07:07:06.756Z,1018.68
2022-11-12T07:08:03.965Z,1018.67
2022-11-12T07:09:03.935Z,1018.67
2022-11-12T07:10:03.934Z,1018.66
2022-11-12T07:11:03.915Z,1018.65
2022-11-12T07:12:03.886Z,1018.66
2022-11-12T07:13:03.953Z,1018.66
2022-11-12T07:14:03.894Z,1018.66
2022-11-12T07:15:03.895Z,1018.66
2022-11-12T07:16:03.901Z,1018.65
2022-11-12T07:17:03.854Z,1018.64
2022-11-12T07:18:03.912Z,1018.63
2022-11-12T07:19:03.869Z,1018.63
2022-11-12T07:20:04.371Z,1018.63
2022-11-12T07:21:03.804Z,1018.63
2022-11-12T07:22:03.841Z,1018.63
2022-11-12T07:23:03.808Z,1018.63
2022-11-12T07:24:03.779Z,1018.63
2022-11-12T07:25:03.799Z,1018.63
2022-11-12T07:26:03.790Z,1018.64
2022-11-12T07:27:05.118Z,1018.65
2022-11-12T07:28:03.726Z,1018.67
2022-11-12T07:29:03.751Z,1018.68
2022-11-12T07:31:29.716Z,1018.69
2022-11-12T07:38:09.061Z,1018.80
2022-11-12T07:39:10.035Z,1018.81
2022-11-12T07:40:10.015Z,1018.82
2022-11-12T07:41:10.036Z,1018.82
2022-11-12T07:42:10.033Z,1018.81
2022-11-12T07:43:10.022Z,1018.80
2022-11-12T07:44:09.986Z,1018.80
2022-11-12T07:45:09.980Z,1018.80
2022-11-12T07:46:10.993Z,1018.80
2022-11-12T07:47:09.975Z,1018.81
2022-11-12T07:48:09.988Z,1018.82
2022-11-12T07:49:09.927Z,1018.83
2022-11-12T07:50:09.925Z,1018.85
2022-11-12T07:51:09.907Z,1018.87
2022-11-12T07:52:09.930Z,1018.89
2022-11-12T07:53:09.882Z,1018.89
2022-11-12T07:54:09.867Z,1018.91
2022-11-12T07:55:09.864Z,1018.92
2022-11-12T07:56:09.853Z,1018.93
2022-11-12T07:57:09.905Z,1018.95
2022-11-12T07:58:09.848Z,1018.97
2022-11-12T07:59:09.836Z,1018.99
2022-11-12T08:00:09.806Z,1019.00
2022-11-12T08:01:09.920Z,1018.99
2022-11-12T08:02:09.836Z,1018.99
2022-11-12T08:03:09.806Z,1018.99
2022-11-12T08:04:09.791Z,1018.99
2022-11-12T08:05:16.370Z,1019.00
2022-11-12T08:06:09.767Z,1019.02
2022-11-12T08:07:09.828Z,1019.03
2022-11-12T08:08:09.937Z,1019.04
2022-11-12T08:09:09.749Z,1019.05
2022-11-12T08:17:14.726Z,1019.07
2022-11-12T08:18:20.762Z,1019.06
2022-11-12T08:19:14.243Z,1019.06
2022-11-12T08:20:14.226Z,1019.07
2022-11-12T08:21:14.214Z,1019.09
2022-11-12T08:22:14.240Z,1019.10
2022-11-12T08:23:14.224Z,1019.11
2022-11-12T08:24:14.177Z,1019.12
2022-11-12T08:25:14.168Z,1019.11
2022-11-12T08:26:14.181Z,1019.11
2022-11-12T08:27:14.179Z,1019.10
2022-11-12T08:28:14.141Z,1019.09
2022-11-12T08:29:14.153Z,1019.09
2022-11-12T08:30:14.128Z,1019.09
2022-11-12T08:31:14.134Z,1019.09
2022-11-12T08:32:14.125Z,1019.08
2022-11-12T08:33:14.113Z,1019.08
2022-11-12T08:34:17.452Z,1019.07
2022-11-12T08:35:14.082Z,1019.07
2022-11-12T08:36:14.078Z,1019.08
2022-11-12T08:37:14.116Z,1019.09
2022-11-12T08:38:14.087Z,1019.09
2022-11-12T08:46:30.661Z,1019.11
2022-11-12T08:47:31.638Z,1019.12
2022-11-12T08:48:31.614Z,1019.13
2022-11-12T08:49:31.624Z,1019.13
2022-11-12T08:50:31.638Z,1019.13
2022-11-12T08:51:31.711Z,1019.13
2022-11-12T08:52:31.578Z,1019.13
2022-11-12T08:53:31.570Z,1019.14
2022-11-12T08:54:31.573Z,1019.16
2022-11-12T08:55:31.564Z,1019.17
2022-11-12T08:56:31.568Z,1019.18
2022-11-12T08:57:31.546Z,1019.19
2022-11-12T08:58:31.603Z,1019.20
2022-11-12T08:59:31.512Z,1019.21
2022-11-12T09:00:39.318Z,1019.22
2022-11-12T09:01:39.149Z,1019.24
2022-11-12T09:02:31.475Z,1019.24
2022-11-12T09:03:31.474Z,1019.25
2022-11-12T09:04:31.469Z,1019.26
2022-11-12T09:05:31.564Z,1019.27
2022-11-12T09:06:31.458Z,1019.26
2022-11-12T09:08:31.700Z,1019.26
2022-11-12T09:09:31.798Z,1019.25
2022-11-12T09:10:31.703Z,1019.24
2022-11-12T09:11:35.792Z,1019.25
2022-11-12T09:58:07.336Z,1019.31
2022-11-12T09:59:07.269Z,1019.33
2022-11-12T10:00:06.927Z,1019.34
2022-11-12T10:01:13.557Z,1019.34
2022-11-12T10:06:52.578Z,1019.26
2022-11-12T10:07:53.573Z,1019.25
2022-11-12T10:08:53.630Z,1019.25
2022-11-12T10:09:53.595Z,1019.24
2022-11-12T10:10:53.494Z,1019.23
2022-11-12T10:11:53.529Z,1019.22
2022-11-12T10:12:53.560Z,1019.21
2022-11-12T10:13:53.503Z,1019.20
2022-11-12T10:14:53.464Z,1019.18
2022-11-12T10:15:53.515Z,1019.16
2022-11-12T10:16:53.440Z,1019.15
2022-11-12T10:17:53.577Z,1019.15
2022-11-12T10:18:53.437Z,1019.15
2022-11-12T10:19:53.435Z,1019.15
2022-11-12T10:20:53.391Z,1019.15
2022-11-12T10:21:53.378Z,1019.14
2022-11-12T10:22:53.524Z,1019.13
2022-11-12T10:23:53.368Z,1019.12
2022-11-12T10:24:53.353Z,1019.11
2022-11-12T10:25:53.332Z,1019.11
2022-11-12T10:26:53.320Z,1019.11
2022-11-12T10:27:53.486Z,1019.09
2022-11-12T10:28:53.299Z,1019.08
2022-11-12T10:29:53.280Z,1019.06
2022-11-12T10:30:53.325Z,1019.06
2022-11-12T10:31:53.504Z,1019.06
2022-11-12T10:32:53.791Z,1019.07
2022-11-12T10:33:53.298Z,1019.08
2022-11-12T10:34:53.317Z,1019.09
2022-11-12T10:35:53.302Z,1019.10
2022-11-12T10:36:55.474Z,1019.11
2022-11-12T10:37:53.210Z,1019.11
2022-11-12T10:38:53.225Z,1019.10
2022-11-12T10:39:53.178Z,1019.09
2022-11-12T10:40:53.222Z,1019.09
2022-11-12T10:41:53.184Z,1019.09
2022-11-12T10:43:42.339Z,1019.09
2022-11-12T10:43:53.165Z,1019.10
2022-11-12T10:44:53.131Z,1019.10
2022-11-12T10:45:53.260Z,1019.09
2022-11-12T10:46:53.125Z,1019.08
2022-11-12T10:47:53.090Z,1019.07
2022-11-12T10:48:53.085Z,1019.05
2022-11-12T10:49:53.086Z,1019.03
2022-11-12T10:50:53.087Z,1019.00
2022-11-12T10:51:53.088Z,1018.98
2022-11-12T10:52:53.160Z,1018.95
2022-11-12T10:53:53.043Z,1018.92
2022-11-12T10:54:55.209Z,1018.91
2022-11-12T10:55:53.005Z,1018.89
2022-11-12T10:56:55.757Z,1018.87
2022-11-12T10:57:53.146Z,1018.85
2022-11-12T10:58:53.005Z,1018.84
2022-11-12T10:59:52.961Z,1018.83
2022-11-12T11:00:53.003Z,1018.83
2022-11-12T11:01:53.020Z,1018.82
2022-11-12T11:02:52.942Z,1018.81
2022-11-12T11:03:52.962Z,1018.79
2022-11-12T11:04:52.927Z,1018.77
2022-11-12T11:05:52.939Z,1018.76
2022-11-12T11:06:52.904Z,1018.74
2022-11-12T11:07:53.008Z,1018.72
2022-11-12T11:08:52.893Z,1018.71
2022-11-12T11:09:52.860Z,1018.70
2022-11-12T11:10:52.872Z,1018.69
2022-11-12T11:11:52.889Z,1018.68
2022-11-12T11:12:52.853Z,1018.67
2022-11-12T11:13:55.588Z,1018.66
2022-11-12T11:14:52.810Z,1018.66
2022-11-12T11:15:52.809Z,1018.66
2022-11-12T11:16:53.023Z,1018.67
2022-11-12T11:17:52.832Z,1018.67
2022-11-12T11:18:52.812Z,1018.67
2022-11-12T11:19:52.777Z,1018.66
2022-11-12T11:20:52.745Z,1018.64
2022-11-12T11:21:52.943Z,1018.63
2022-11-12T11:22:52.859Z,1018.61
2022-11-12T11:23:54.016Z,1018.58
2022-11-12T11:24:52.844Z,1018.56
2022-11-12T11:25:52.733Z,1018.53
2022-11-12T11:26:52.793Z,1018.52
2022-11-12T11:27:52.896Z,1018.52
2022-11-12T11:28:52.783Z,1018.52
2022-11-12T11:29:52.729Z,1018.54
2022-11-12T11:30:53.215Z,1018.55
2022-11-12T11:31:52.705Z,1018.57
2022-11-12T11:32:52.780Z,1018.59
2022-11-12T11:33:52.625Z,1018.60
2022-11-12T11:34:52.634Z,1018.61
2022-11-12T11:35:52.595Z,1018.62
2022-11-12T11:36:52.764Z,1018.60
2022-11-12T11:37:57.381Z,1018.59
2022-11-12T11:38:52.560Z,1018.57
2022-11-12T11:39:52.537Z,1018.55
2022-11-12T11:40:52.581Z,1018.53
2022-11-12T11:41:52.548Z,1018.51
2022-11-12T11:42:52.560Z,1018.50
2022-11-12T11:43:52.765Z,1018.48
2022-11-12T11:44:52.556Z,1018.47
2022-11-12T11:45:52.731Z,1018.45
2022-11-12T11:46:52.531Z,1018.43
2022-11-12T11:48:01.240Z,1018.42
2022-11-12T11:48:52.452Z,1018.41
2022-11-12T11:49:52.433Z,1018.42
2022-11-12T11:50:52.432Z,1018.44
2022-11-12T11:51:52.776Z,1018.46
2022-11-12T11:52:52.495Z,1018.48
2022-11-12T11:53:52.719Z,1018.50
2022-11-12T11:54:52.564Z,1018.51
2022-11-12T11:55:52.513Z,1018.51
2022-11-12T11:56:52.396Z,1018.51
2022-11-12T11:57:52.480Z,1018.51
2022-11-12T11:58:52.452Z,1018.51
2022-11-12T11:59:52.350Z,1018.50
2022-11-12T12:00:52.319Z,1018.49
2022-11-12T12:01:52.328Z,1018.49
2022-11-12T12:02:52.296Z,1018.49
2022-11-12T12:03:52.349Z,1018.49
2022-11-12T12:04:52.304Z,1018.48
2022-11-12T12:05:52.345Z,1018.47
2022-11-12T12:06:52.458Z,1018.45
2022-11-12T12:07:52.300Z,1018.44
2022-11-12T12:08:52.335Z,1018.42
2022-11-12T12:09:52.299Z,1018.41
2022-11-12T12:11:07.340Z,1018.40
2022-11-12T12:11:52.413Z,1018.40
2022-11-12T12:12:52.250Z,1018.40
2022-11-12T12:13:52.207Z,1018.40
2022-11-12T12:14:52.240Z,1018.40
2022-11-12T12:15:52.200Z,1018.40
2022-11-12T12:16:52.153Z,1018.39
2022-11-12T12:17:52.258Z,1018.38
2022-11-12T12:18:58.091Z,1018.38
2022-11-12T12:19:52.380Z,1018.38
2022-11-12T12:20:53.688Z,1018.37
2022-11-12T12:21:52.117Z,1018.37
2022-11-12T12:22:52.138Z,1018.36
2022-11-12T12:23:52.117Z,1018.35
2022-11-12T12:24:52.071Z,1018.34
2022-11-12T12:25:54.978Z,1018.33
2022-11-12T12:26:52.061Z,1018.32
2022-11-12T12:27:52.209Z,1018.31
2022-11-12T12:28:52.034Z,1018.31
2022-11-12T12:29:52.019Z,1018.30
2022-11-12T12:30:52.013Z,1018.29
2022-11-12T12:31:52.022Z,1018.28
2022-11-12T12:32:52.016Z,1018.27
2022-11-12T12:33:51.969Z,1018.27
2022-11-12T12:34:51.991Z,1018.27
2022-11-12T12:35:59.343Z,1018.26
2022-11-12T12:36:58.453Z,1018.24
2022-11-12T12:39:08.663Z,1018.19
2022-11-12T12:40:09.611Z,1018.17
2022-11-12T12:41:09.687Z,1018.15
2022-11-12T12:42:09.644Z,1018.13
2022-11-12T12:43:09.646Z,1018.12
2022-11-12T12:44:09.624Z,1018.12
2022-11-12T12:45:09.565Z,1018.13
2022-11-12T12:46:09.548Z,1018.12
2022-11-12T12:47:09.599Z,1018.12
2022-11-12T12:48:09.537Z,1018.11
2022-11-12T12:49:09.571Z,1018.11
2022-11-12T12:50:09.509Z,1018.11
2022-11-12T12:51:09.562Z,1018.11
2022-11-12T12:52:09.511Z,1018.12
2022-11-12T12:53:09.663Z,1018.13
2022-11-12T12:54:09.502Z,1018.13
2022-11-12T12:55:09.475Z,1018.14
2022-11-12T12:56:09.462Z,1018.14
2022-11-12T12:57:09.472Z,1018.13
2022-11-12T12:58:09.667Z,1018.12
2022-11-12T12:59:09.507Z,1018.12
2022-11-12T13:00:14.353Z,1018.13
2022-11-12T13:01:09.483Z,1018.14
2022-11-12T13:02:09.547Z,1018.15
2022-11-12T13:03:09.437Z,1018.16
2022-11-12T13:04:15.863Z,1018.16
2022-11-12T13:05:09.386Z,1018.16
2022-11-12T13:06:15.864Z,1018.16
2022-11-12T13:07:11.030Z,1018.16
2022-11-12T13:08:09.313Z,1018.15
2022-11-12T13:09:09.309Z,1018.15
2022-11-12T13:10:09.326Z,1018.14
2022-11-12T13:11:09.291Z,1018.14
2022-11-12T13:12:09.298Z,1018.14
2022-11-12T13:13:15.776Z,1018.13
2022-11-12T13:14:09.254Z,1018.11
2022-11-12T13:15:09.241Z,1018.10
2022-11-12T13:16:09.229Z,1018.07
2022-11-12T13:17:09.266Z,1018.06
2022-11-12T13:18:14.259Z,1018.04
2022-11-12T13:19:09.246Z,1018.03
2022-11-12T13:20:09.339Z,1018.02
2022-11-12T13:21:09.182Z,1018.01
2022-11-12T13:22:09.199Z,1017.99
2022-11-12T13:23:09.186Z,1017.97
2022-11-12T13:24:09.474Z,1017.96
2022-11-12T13:25:09.149Z,1017.95
2022-11-12T13:26:09.126Z,1017.94
2022-11-12T13:27:09.162Z,1017.92
2022-11-12T13:28:09.100Z,1017.90